Asti, California
Current Conditions -  °F | °C
As of 8:53 PM on Tuesday 25 Nov 2014 (Local Time) from KSTS Reporting Station
Clear Clear  
Wind Chill:   Ceiling: Unl
Heat Index:   Visibility: 10mi
Dew Point:   Wind: 3mph
Humidity: 89%   Direction: 330°NNW
Pressure: 30.35"   Gusts: NA
Location:  38.7954°N, 123.01°W
Report Text: KSTS 260453Z AUTO 33003KT 10SM CLR 09/07 A3035 RMK AO2 SLP271 T00890072
Loading
Personal Weather Stations






























Interactive Weather Map New forecast layout! Learn more

10-Day Weather Forecast

Advertisements
Track Severe Weather on mobile